Time;durP1;ratioP1;P1;durP2;ratioP2;P2;SDS_P1;SDS_P2;PMS_P1;PMS_P2;Temp;Humidity;BMP_temperature;BMP_pressure;BME280_temperature;BME280_humidity;BME280_pressure;Samples;Min_cycle;Max_cycle;Signal;HPM_P1;HPM_P2
2023/08/13 00:00:25;;;;;;;;;;;;;;;20.26;86.57;98276.03;5046466;28;19929;-59
2023/08/13 00:02:54;;;;;;;;;;;;;;;20.25;86.68;98275.22;5046300;28;19971;-58
2023/08/13 00:05:23;;;;;;;;;;;;;;;20.25;86.42;98275.22;5049801;28;19935;-58
2023/08/13 00:07:51;;;;;;;;;;;;;;;20.23;86.80;98274.78;5059157;28;19925;-59
2023/08/13 00:10:19;;;;;;;;;;;;;;;20.25;86.62;98269.72;5047314;28;19932;-58
2023/08/13 00:12:47;;;;;;;;;;;;;;;20.28;86.67;98271.72;5047692;28;19964;-58
2023/08/13 00:15:15;;;;;;;;;;;;;;;20.23;86.68;98274.78;5032450;28;19937;-58
2023/08/13 00:17:43;;;;;;;;;;;;;;;20.18;86.80;98274.28;5051788;28;19970;-57
2023/08/13 00:20:13;;;;;;;;;;;;;;;20.17;87.03;98273.50;5047747;28;19925;-58
2023/08/13 00:22:41;;;;;;;;;;;;;;;20.22;86.77;98272.41;5047840;28;19936;-58
2023/08/13 00:25:09;;;;;;;;;;;;;;;20.22;86.89;98269.63;5049124;28;20009;-58
2023/08/13 00:27:37;;;;;;;;;;;;;;;20.15;86.83;98275.81;5047700;28;19971;-58
2023/08/13 00:30:06;;;;;;;;;;;;;;;20.14;86.68;98272.28;5047635;28;19936;-58
2023/08/13 00:32:33;;;;;;;;;;;;;;;20.18;86.58;98277.84;5051945;28;19928;-58
2023/08/13 00:35:01;;;;;;;;;;;;;;;20.12;86.60;98277.34;5026087;28;19926;-58
2023/08/13 00:37:31;;;;;;;;;;;;;;;20.19;86.57;98282.22;5041072;28;19982;-58
2023/08/13 00:39:59;;;;;;;;;;;;;;;20.15;86.36;98282.13;5049251;28;20385;-58
2023/08/13 00:42:27;;;;;;;;;;;;;;;20.06;86.71;98280.75;5047171;28;20411;-58
2023/08/13 00:44:55;;;;;;;;;;;;;;;20.11;86.37;98288.75;5028913;28;19936;-59
2023/08/13 00:47:23;;;;;;;;;;;;;;;19.97;87.31;98283.75;5051579;28;20282;-58
2023/08/13 00:49:51;;;;;;;;;;;;;;;19.94;87.19;98278.97;5025647;28;20004;-59
2023/08/13 00:52:19;;;;;;;;;;;;;;;20.00;87.07;98282.22;5048025;28;19925;-58
2023/08/13 00:54:54;;;;;;;;;;;;;;;20.00;86.95;98284.97;5025816;28;20012;-58
2023/08/13 00:57:22;;;;;;;;;;;;;;;20.00;86.70;98283.03;5057263;28;19929;-58
2023/08/13 00:59:50;;;;;;;;;;;;;;;20.06;86.43;98289.03;5033495;28;20381;-61
2023/08/13 01:02:18;;;;;;;;;;;;;;;20.04;86.49;98291.38;5050453;28;20429;-58
2023/08/13 01:04:46;;;;;;;;;;;;;;;20.03;86.01;98292.53;5026900;28;19982;-58
2023/08/13 01:07:17;;;;;;;;;;;;;;;20.04;86.08;98285.84;5038672;28;19924;-58
2023/08/13 01:09:57;;;;;;;;;;;;;;;19.93;86.36;98284.84;5031995;28;19940;-58
2023/08/13 01:12:29;;;;;;;;;;;;;;;19.96;86.59;98286.88;5050254;28;19936;-58
2023/08/13 01:15:01;;;;;;;;;;;;;;;19.95;86.22;98283.31;5064764;28;19928;-58
2023/08/13 01:17:29;;;;;;;;;;;;;;;19.90;86.39;98291.88;5049019;28;19924;-58
2023/08/13 01:19:59;;;;;;;;;;;;;;;19.92;86.39;98288.75;5032097;28;20285;-58
2023/08/13 01:22:28;;;;;;;;;;;;;;;19.89;86.03;98291.09;5063775;28;19925;-58
2023/08/13 01:24:56;;;;;;;;;;;;;;;19.79;86.54;98286.16;5045132;28;20332;-58
2023/08/13 01:27:27;;;;;;;;;;;;;;;19.70;86.64;98271.78;5058156;28;19974;-61
2023/08/13 01:29:55;;;;;;;;;;;;;;;19.63;87.29;98285.44;5035620;28;19933;-59
2023/08/13 01:32:25;;;;;;;;;;;;;;;19.71;87.09;98289.13;5064303;28;19935;-58
2023/08/13 01:34:54;;;;;;;;;;;;;;;19.57;87.54;98292.34;5048799;28;20043;-59
2023/08/13 01:37:22;;;;;;;;;;;;;;;19.60;87.36;98289.72;5066195;28;19977;-59
2023/08/13 01:39:51;;;;;;;;;;;;;;;19.63;87.19;98283.47;5030442;28;19932;-59
2023/08/13 01:42:19;;;;;;;;;;;;;;;19.67;87.07;98283.53;5061545;28;19925;-58
2023/08/13 01:44:47;;;;;;;;;;;;;;;19.74;86.61;98286.44;5033888;28;20023;-58
2023/08/13 01:47:15;;;;;;;;;;;;;;;19.69;86.19;98283.97;5029349;28;20655;-58
2023/08/13 01:49:43;;;;;;;;;;;;;;;19.76;85.98;98275.88;5049266;28;19925;-58
2023/08/13 01:52:11;;;;;;;;;;;;;;;19.76;85.67;98286.91;5052811;28;19952;-58
2023/08/13 01:54:39;;;;;;;;;;;;;;;19.78;85.35;98284.56;5051831;28;19925;-57
2023/08/13 01:57:08;;;;;;;;;;;;;;;19.77;85.17;98282.19;5045879;28;19939;-57
2023/08/13 01:59:36;;;;;;;;;;;;;;;19.70;85.21;98288.31;5064764;28;20401;-58
2023/08/13 02:02:04;;;;;;;;;;;;;;;19.75;85.05;98285.28;5031814;28;19925;-58
2023/08/13 02:04:33;;;;;;;;;;;;;;;19.64;85.20;98289.78;5060346;28;19925;-59
2023/08/13 02:07:01;;;;;;;;;;;;;;;19.55;85.59;98289.19;5028583;28;19932;-58
2023/08/13 02:09:29;;;;;;;;;;;;;;;19.56;85.58;98285.25;5035102;28;19931;-59
2023/08/13 02:11:56;;;;;;;;;;;;;;;19.61;85.34;98282.25;5048236;28;19943;-58
2023/08/13 02:14:27;;;;;;;;;;;;;;;19.55;85.53;98286.41;5040638;28;19929;-58
2023/08/13 02:16:55;;;;;;;;;;;;;;;19.61;85.22;98291.31;5052986;28;20378;-59
2023/08/13 02:19:23;;;;;;;;;;;;;;;19.58;85.33;98288.44;5028036;28;19933;-59
2023/08/13 02:21:51;;;;;;;;;;;;;;;19.65;84.68;98280.34;5052195;28;20304;-57
2023/08/13 02:24:19;;;;;;;;;;;;;;;19.68;84.41;98276.88;5045612;28;20039;-58
2023/08/13 02:26:46;;;;;;;;;;;;;;;19.68;84.37;98276.88;5062769;28;19929;-58
2023/08/13 02:29:14;;;;;;;;;;;;;;;19.62;84.21;98281.06;5033055;28;19925;-59
2023/08/13 02:31:43;;;;;;;;;;;;;;;19.61;84.20;98276.72;5060635;28;19960;-58
2023/08/13 02:34:11;;;;;;;;;;;;;;;19.65;83.99;98274.03;5046762;28;19932;-59
2023/08/13 02:36:39;;;;;;;;;;;;;;;19.62;83.66;98272.81;5060199;28;19968;-58
2023/08/13 02:39:08;;;;;;;;;;;;;;;19.50;84.04;98278.44;5027630;28;19929;-58
2023/08/13 02:41:37;;;;;;;;;;;;;;;19.53;84.14;98281.25;5061125;28;19924;-58
2023/08/13 02:44:05;;;;;;;;;;;;;;;19.47;84.12;98285.44;5060685;28;19924;-57
2023/08/13 02:46:33;;;;;;;;;;;;;;;19.46;84.36;98283.84;5049067;28;19924;-59
2023/08/13 02:49:03;;;;;;;;;;;;;;;19.49;83.87;98277.63;5027713;28;20382;-58
2023/08/13 02:51:31;;;;;;;;;;;;;;;19.47;83.93;98284.66;5035973;28;19925;-58
2023/08/13 02:54:01;;;;;;;;;;;;;;;19.45;83.61;98281.47;5048862;28;19931;-58
2023/08/13 02:56:29;;;;;;;;;;;;;;;19.37;84.00;98281.31;5043142;28;19925;-58
2023/08/13 02:58:56;;;;;;;;;;;;;;;19.23;84.52;98286.50;5064184;28;20088;-59
2023/08/13 03:01:24;;;;;;;;;;;;;;;19.25;84.49;98278.69;5032547;28;20274;-59
2023/08/13 03:03:53;;;;;;;;;;;;;;;19.25;84.70;98281.44;5053640;28;19925;-59
2023/08/13 03:06:24;;;;;;;;;;;;;;;19.30;84.47;98285.88;5051096;28;19982;-58
2023/08/13 03:08:53;;;;;;;;;;;;;;;19.32;83.92;98284.34;5045592;28;20378;-58
2023/08/13 03:11:21;;;;;;;;;;;;;;;19.22;84.36;98284.09;5046207;28;19939;-59
2023/08/13 03:13:49;;;;;;;;;;;;;;;19.30;83.85;98280.34;5050995;28;19929;-58
2023/08/13 03:16:17;;;;;;;;;;;;;;;19.30;83.53;98272.88;5062395;28;19932;-58
2023/08/13 03:18:46;;;;;;;;;;;;;;;19.21;83.40;98271.50;5066904;28;20007;-58
2023/08/13 03:21:17;;;;;;;;;;;;;;;19.18;83.08;98277.72;5053410;28;19959;-59
2023/08/13 03:23:47;;;;;;;;;;;;;;;19.14;83.16;98277.63;5066188;28;19924;-58
2023/08/13 03:26:15;;;;;;;;;;;;;;;19.10;83.01;98277.56;5064032;28;19970;-58
2023/08/13 03:28:44;;;;;;;;;;;;;;;19.17;82.90;98282.41;5038754;28;19935;-59
2023/08/13 03:31:18;;;;;;;;;;;;;;;19.14;82.63;98277.63;5032790;28;19941;-58
2023/08/13 03:33:55;;;;;;;;;;;;;;;19.17;82.53;98278.88;5063949;28;19925;-59
2023/08/13 03:36:24;;;;;;;;;;;;;;;19.15;82.57;98276.47;5048898;28;19931;-57
2023/08/13 03:38:53;;;;;;;;;;;;;;;19.11;82.38;98267.34;5049721;28;19928;-59
2023/08/13 03:41:22;;;;;;;;;;;;;;;19.14;82.16;98274.88;5037397;28;20355;-58
2023/08/13 03:43:50;;;;;;;;;;;;;;;19.17;81.97;98276.13;5062551;28;19928;-60
2023/08/13 03:46:18;;;;;;;;;;;;;;;19.09;82.31;98281.47;5059884;28;19933;-58
2023/08/13 03:48:46;;;;;;;;;;;;;;;19.11;82.22;98275.59;5030059;28;19929;-58
2023/08/13 03:51:13;;;;;;;;;;;;;;;19.04;82.30;98278.19;5028289;28;19933;-59
2023/08/13 03:53:41;;;;;;;;;;;;;;;19.04;82.33;98273.47;5038393;28;19925;-58
2023/08/13 03:56:11;;;;;;;;;;;;;;;19.00;82.44;98285.56;5063242;28;20587;-58
2023/08/13 03:58:38;;;;;;;;;;;;;;;18.98;82.58;98282.38;5048798;28;19928;-58
2023/08/13 04:01:09;;;;;;;;;;;;;;;18.98;82.37;98285.13;5046309;28;20266;-58
2023/08/13 04:03:40;;;;;;;;;;;;;;;18.90;82.61;98278.66;5044084;28;19929;-59
2023/08/13 04:06:08;;;;;;;;;;;;;;;18.97;82.38;98283.53;5062894;28;19936;-58
2023/08/13 04:08:36;;;;;;;;;;;;;;;18.98;82.44;98285.13;5031720;28;19925;-58
2023/08/13 04:11:04;;;;;;;;;;;;;;;18.99;82.39;98287.53;5064740;28;19931;-58
2023/08/13 04:13:49;;;;;;;;;;;;;;;18.93;82.64;98272.44;5068636;28;19933;-58
2023/08/13 04:16:31;;;;;;;;;;;;;;;18.91;82.75;98284.94;5059043;28;20363;-58
2023/08/13 04:18:59;;;;;;;;;;;;;;;18.84;82.83;98278.13;5063340;28;19932;-57
2023/08/13 04:21:27;;;;;;;;;;;;;;;18.89;82.72;98279.81;5042409;28;19924;-58
2023/08/13 04:23:56;;;;;;;;;;;;;;;18.91;82.69;98280.25;5045198;28;19925;-58
2023/08/13 04:26:24;;;;;;;;;;;;;;;18.92;82.76;98281.06;5046970;28;20014;-59
2023/08/13 04:28:56;;;;;;;;;;;;;;;18.96;82.52;98279.16;5062639;28;19925;-58
2023/08/13 04:31:24;;;;;;;;;;;;;;;18.96;82.64;98287.44;5050038;28;19929;-58
2023/08/13 04:33:52;;;;;;;;;;;;;;;19.00;82.34;98289.13;5045455;28;19964;-58
2023/08/13 04:36:21;;;;;;;;;;;;;;;18.95;82.85;98300.41;5042750;28;19933;-58
2023/08/13 04:38:48;;;;;;;;;;;;;;;18.90;82.93;98299.88;5028848;28;19929;-59
2023/08/13 04:41:16;;;;;;;;;;;;;;;18.83;83.25;98300.50;5028767;28;19929;-58
2023/08/13 04:43:47;;;;;;;;;;;;;;;18.80;83.60;98292.94;5036465;28;19960;-59
2023/08/13 04:46:17;;;;;;;;;;;;;;;18.87;83.64;98289.59;5015831;28;19940;-58
2023/08/13 04:48:54;;;;;;;;;;;;;;;18.86;84.00;98293.50;5023453;28;20023;-58
2023/08/13 04:51:24;;;;;;;;;;;;;;;18.92;83.61;98303.09;5029192;28;19961;-58
2023/08/13 04:53:54;;;;;;;;;;;;;;;18.98;83.46;98298.91;5024987;28;19925;-58
2023/08/13 04:56:25;;;;;;;;;;;;;;;19.03;83.33;98304.13;5043778;28;19925;-59
2023/08/13 04:58:54;;;;;;;;;;;;;;;19.07;83.02;98299.53;5035855;28;19955;-58
2023/08/13 05:01:23;;;;;;;;;;;;;;;19.06;83.12;98298.69;5021319;28;19949;-58
2023/08/13 05:03:54;;;;;;;;;;;;;;;19.01;83.38;98300.91;5025358;28;19926;-58
2023/08/13 05:06:24;;;;;;;;;;;;;;;19.04;83.60;98300.22;5024973;28;19933;-58
2023/08/13 05:08:54;;;;;;;;;;;;;;;19.11;83.55;98297.63;5033100;28;19988;-58
2023/08/13 05:11:22;;;;;;;;;;;;;;;19.01;83.88;98289.91;5027262;28;19968;-58
2023/08/13 05:13:52;;;;;;;;;;;;;;;19.08;83.95;98306.63;5044160;28;19932;-59
2023/08/13 05:16:23;;;;;;;;;;;;;;;19.08;84.23;98303.88;5043695;28;19929;-59
2023/08/13 05:18:52;;;;;;;;;;;;;;;19.16;84.00;98302.84;5027578;28;19941;-59
2023/08/13 05:21:20;;;;;;;;;;;;;;;19.06;84.68;98304.19;5040898;28;19930;-58
2023/08/13 05:23:48;;;;;;;;;;;;;;;19.19;84.24;98307.66;5034979;28;19932;-58
2023/08/13 05:26:16;;;;;;;;;;;;;;;19.22;84.07;98306.13;5024209;28;19940;-58
2023/08/13 05:28:45;;;;;;;;;;;;;;;19.19;84.53;98299.41;5026061;28;19929;-58
2023/08/13 05:31:13;;;;;;;;;;;;;;;19.22;84.32;98295.91;5037613;28;19926;-58
2023/08/13 05:33:42;;;;;;;;;;;;;;;19.25;84.34;98286.94;5025397;28;20329;-59
2023/08/13 05:36:10;;;;;;;;;;;;;;;19.24;84.67;98281.81;5037041;28;20326;-59
2023/08/13 05:38:38;;;;;;;;;;;;;;;19.29;84.59;98293.34;5041381;28;19925;-59
2023/08/13 05:41:09;;;;;;;;;;;;;;;19.29;84.87;98290.59;5025381;28;20023;-62
2023/08/13 05:43:37;;;;;;;;;;;;;;;19.27;85.06;98298.38;5018744;28;19928;-59
2023/08/13 05:46:05;;;;;;;;;;;;;;;19.31;84.98;98304.00;5026866;28;19939;-59
2023/08/13 05:48:35;;;;;;;;;;;;;;;19.28;85.63;98300.00;5034565;28;19951;-60
2023/08/13 05:51:04;;;;;;;;;;;;;;;19.34;85.54;98293.06;5041626;28;19925;-60
2023/08/13 05:53:32;;;;;;;;;;;;;;;19.40;85.32;98304.59;5018975;28;19936;-57
2023/08/13 05:56:00;;;;;;;;;;;;;;;19.42;85.30;98305.03;5028932;28;19929;-58
2023/08/13 05:58:28;;;;;;;;;;;;;;;19.43;85.28;98292.84;5023567;28;19932;-59
2023/08/13 06:00:56;;;;;;;;;;;;;;;19.44;85.70;98299.13;5040110;28;19960;-59
2023/08/13 06:03:25;;;;;;;;;;;;;;;19.50;85.38;98298.53;5025603;28;19933;-59
2023/08/13 06:05:54;;;;;;;;;;;;;;;19.55;85.42;98298.25;5020777;28;19936;-60
2023/08/13 06:08:24;;;;;;;;;;;;;;;19.58;85.27;98297.50;5026047;28;19959;-58
2023/08/13 06:10:54;;;;;;;;;;;;;;;19.54;85.43;98296.63;5024786;28;19928;-58
2023/08/13 06:13:23;;;;;;;;;;;;;;;19.55;85.30;98298.25;5023806;28;19926;-61
2023/08/13 06:15:51;;;;;;;;;;;;;;;19.51;85.63;98302.88;5022495;28;19925;-58
2023/08/13 06:18:21;;;;;;;;;;;;;;;19.57;85.69;98300.63;5019857;28;19925;-58
2023/08/13 06:20:50;;;;;;;;;;;;;;;19.58;85.65;98302.22;5023972;28;19929;-58
2023/08/13 06:23:18;;;;;;;;;;;;;;;19.62;85.93;98297.63;5025160;28;19925;-59
2023/08/13 06:25:47;;;;;;;;;;;;;;;19.64;86.01;98306.31;5028198;28;19940;-58
2023/08/13 06:28:18;;;;;;;;;;;;;;;19.71;86.09;98295.44;5024578;28;19931;-59
2023/08/13 06:30:49;;;;;;;;;;;;;;;19.78;86.23;98300.31;5019915;28;19932;-60
2023/08/13 06:33:18;;;;;;;;;;;;;;;19.85;86.28;98297.69;5027918;28;19936;-59
2023/08/13 06:35:46;;;;;;;;;;;;;;;19.91;86.35;98304.50;5026176;28;20570;-58
2023/08/13 06:38:14;;;;;;;;;;;;;;;19.94;86.02;98314.03;5025882;28;19925;-58
2023/08/13 06:40:42;;;;;;;;;;;;;;;19.98;85.85;98314.91;5021332;28;19925;-61
2023/08/13 06:43:11;;;;;;;;;;;;;;;20.04;85.67;98310.69;5038251;28;19933;-58
2023/08/13 06:45:39;;;;;;;;;;;;;;;20.11;85.53;98319.88;5043004;28;19924;-62
2023/08/13 06:48:07;;;;;;;;;;;;;;;20.18;85.20;98318.41;5042454;28;20370;-59
2023/08/13 06:50:35;;;;;;;;;;;;;;;20.20;85.12;98308.63;5040505;28;19972;-59
2023/08/13 06:53:02;;;;;;;;;;;;;;;20.19;85.25;98301.53;5041909;28;19933;-61
2023/08/13 06:55:30;;;;;;;;;;;;;;;20.23;85.42;98296.84;5037657;28;19928;-58
2023/08/13 06:57:58;;;;;;;;;;;;;;;20.24;85.26;98301.22;5043421;28;20203;-59
2023/08/13 07:00:28;;;;;;;;;;;;;;;20.31;85.05;98295.84;5042763;28;20078;-59
2023/08/13 07:03:06;;;;;;;;;;;;;;;20.33;84.73;98293.50;5045972;28;19960;-58
2023/08/13 07:05:34;;;;;;;;;;;;;;;20.38;84.67;98295.94;5046932;28;19925;-58
2023/08/13 07:08:02;;;;;;;;;;;;;;;20.40;84.87;98298.38;5044532;28;19924;-63
2023/08/13 07:10:30;;;;;;;;;;;;;;;20.46;84.65;98296.91;5032494;28;20453;-58
2023/08/13 07:12:58;;;;;;;;;;;;;;;20.51;84.65;98298.59;5049815;28;19935;-59
2023/08/13 07:15:27;;;;;;;;;;;;;;;20.57;83.87;98297.91;5041271;28;19971;-58
2023/08/13 07:17:55;;;;;;;;;;;;;;;20.55;83.42;98293.91;5039154;28;19928;-58
2023/08/13 07:20:24;;;;;;;;;;;;;;;20.61;83.40;98295.19;5046541;28;19928;-59
2023/08/13 07:22:52;;;;;;;;;;;;;;;20.61;83.01;98298.78;5045997;28;19925;-60
2023/08/13 07:25:20;;;;;;;;;;;;;;;20.75;82.58;98300.16;5039790;28;19933;-58
2023/08/13 07:27:48;;;;;;;;;;;;;;;20.76;81.87;98302.53;5047803;28;19975;-59
2023/08/13 07:30:16;;;;;;;;;;;;;;;20.82;81.14;98306.59;5048059;28;20317;-57
2023/08/13 07:32:46;;;;;;;;;;;;;;;20.88;80.99;98304.34;5042976;28;19933;-59
2023/08/13 07:35:14;;;;;;;;;;;;;;;20.93;80.79;98304.81;5041331;28;19925;-59
2023/08/13 07:37:41;;;;;;;;;;;;;;;21.00;80.06;98311.63;5044543;28;19928;-59
2023/08/13 07:40:12;;;;;;;;;;;;;;;21.06;80.07;98307.38;5039652;28;19933;-62
2023/08/13 07:42:40;;;;;;;;;;;;;;;21.11;79.34;98309.81;5046166;28;19952;-59
2023/08/13 07:45:10;;;;;;;;;;;;;;;21.10;78.28;98316.53;5051932;28;20533;-59
2023/08/13 07:47:38;;;;;;;;;;;;;;;21.06;78.46;98307.38;5052248;28;19925;-60
2023/08/13 07:50:08;;;;;;;;;;;;;;;21.09;78.65;98317.66;5047704;28;20550;-59
2023/08/13 07:52:36;;;;;;;;;;;;;;;21.08;78.39;98308.59;5048776;28;19928;-59
2023/08/13 07:55:05;;;;;;;;;;;;;;;21.10;78.43;98313.75;5042871;28;20373;-60
2023/08/13 07:57:33;;;;;;;;;;;;;;;21.15;78.72;98318.97;5060084;28;20290;-60
2023/08/13 08:00:01;;;;;;;;;;;;;;;21.17;78.47;98320.19;5054841;28;19924;-60
2023/08/13 08:02:39;;;;;;;;;;;;;;;21.15;76.95;98322.53;5047773;28;19929;-59
2023/08/13 08:05:09;;;;;;;;;;;;;;;21.19;77.17;98317.03;5057018;28;19933;-59
2023/08/13 08:07:37;;;;;;;;;;;;;;;21.21;76.63;98317.47;5032021;28;19925;-60
2023/08/13 08:10:06;;;;;;;;;;;;;;;21.20;76.61;98318.66;5047674;28;19929;-60
2023/08/13 08:12:33;;;;;;;;;;;;;;;21.24;76.75;98313.97;5048293;28;19970;-59
2023/08/13 08:15:01;;;;;;;;;;;;;;;21.24;76.14;98319.47;5047502;28;19932;-59
2023/08/13 08:17:29;;;;;;;;;;;;;;;21.24;76.20;98313.97;5046741;28;19989;-60
2023/08/13 08:19:59;;;;;;;;;;;;;;;21.25;75.86;98312.78;5054847;28;19924;-59
2023/08/13 08:22:28;;;;;;;;;;;;;;;21.26;76.27;98306.09;5048487;28;19929;-60
2023/08/13 08:24:56;;;;;;;;;;;;;;;21.27;75.89;98318.75;5048849;28;20402;-59
2023/08/13 08:27:24;;;;;;;;;;;;;;;21.30;75.92;98306.97;5048153;28;19986;-59
2023/08/13 08:29:54;;;;;;;;;;;;;;;21.33;75.76;98311.75;5047716;28;20011;-59
2023/08/13 08:32:22;;;;;;;;;;;;;;;21.31;75.35;98318.84;5049756;28;20341;-59
2023/08/13 08:34:50;;;;;;;;;;;;;;;21.30;75.19;98317.22;5042569;28;19932;-60
2023/08/13 08:37:18;;;;;;;;;;;;;;;21.30;75.67;98318.03;5047476;28;19925;-59
2023/08/13 08:39:47;;;;;;;;;;;;;;;21.30;75.87;98322.75;5049181;28;19925;-60
2023/08/13 08:42:15;;;;;;;;;;;;;;;21.34;75.75;98324.41;5047638;28;19932;-61
2023/08/13 08:44:43;;;;;;;;;;;;;;;21.33;75.60;98322.03;5044408;28;19933;-60
2023/08/13 08:47:11;;;;;;;;;;;;;;;21.32;75.28;98328.72;5038437;28;20263;-59
2023/08/13 08:49:41;;;;;;;;;;;;;;;21.34;75.84;98329.13;5059296;28;19959;-60
2023/08/13 08:52:09;;;;;;;;;;;;;;;21.35;76.11;98333.50;5043361;28;20270;-62
2023/08/13 08:54:38;;;;;;;;;;;;;;;21.36;76.69;98341.44;5023616;28;19947;-59
2023/08/13 08:57:07;;;;;;;;;;;;;;;21.36;75.50;98335.91;5044493;28;19954;-59
2023/08/13 08:59:35;;;;;;;;;;;;;;;21.37;76.45;98337.50;5039872;28;19929;-59
2023/08/13 09:02:03;;;;;;;;;;;;;;;21.39;76.65;98342.63;5045366;28;20033;-60
2023/08/13 09:04:31;;;;;;;;;;;;;;;21.41;76.35;98340.28;5041985;28;19932;-60
2023/08/13 09:07:00;;;;;;;;;;;;;;;21.43;76.45;98327.72;5047009;28;20456;-60
2023/08/13 09:09:28;;;;;;;;;;;;;;;21.44;76.83;98325.75;5045003;28;19935;-61
2023/08/13 09:11:56;;;;;;;;;;;;;;;21.39;77.30;98318.56;5042008;28;19925;-60
2023/08/13 09:14:26;;;;;;;;;;;;;;;21.41;76.81;98321.75;5046312;28;19925;-59
2023/08/13 09:16:55;;;;;;;;;;;;;;;21.43;76.83;98316.66;5040905;28;19969;-59
2023/08/13 09:19:24;;;;;;;;;;;;;;;21.43;77.93;98308.34;5047392;28;20010;-60
2023/08/13 09:21:53;;;;;;;;;;;;;;;21.48;76.17;98295.38;5046493;28;20479;-59
2023/08/13 09:24:31;;;;;;;;;;;;;;;21.49;75.13;98297.78;5047900;28;20329;-59
2023/08/13 09:26:59;;;;;;;;;;;;;;;21.52;74.93;98280.44;5047287;28;20035;-59
2023/08/13 09:29:30;;;;;;;;;;;;;;;21.58;75.16;98289.22;5044064;28;20382;-58
2023/08/13 09:31:58;;;;;;;;;;;;;;;21.57;75.77;98293.13;5045014;28;20094;-58
2023/08/13 09:34:26;;;;;;;;;;;;;;;21.58;76.12;98295.53;5057234;28;19939;-59
2023/08/13 09:36:55;;;;;;;;;;;;;;;21.62;76.38;98290.03;5047413;28;19940;-61
2023/08/13 09:39:23;;;;;;;;;;;;;;;21.64;75.27;98287.72;5043486;28;20395;-61
2023/08/13 09:41:51;;;;;;;;;;;;;;;21.64;74.74;98293.25;5046167;28;19935;-60
2023/08/13 09:44:20;;;;;;;;;;;;;;;21.65;75.06;98294.81;5025859;28;19972;-61
2023/08/13 09:46:52;;;;;;;;;;;;;;;21.68;74.78;98289.34;5047699;28;19924;-61
2023/08/13 09:49:21;;;;;;;;;;;;;;;21.70;74.30;98297.25;5043679;28;19970;-59
2023/08/13 09:51:49;;;;;;;;;;;;;;;21.70;73.56;98292.53;5029220;28;19925;-59
2023/08/13 09:54:21;;;;;;;;;;;;;;;21.69;74.06;98293.69;5047451;28;20373;-59
2023/08/13 09:56:49;;;;;;;;;;;;;;;21.69;75.09;98293.69;5035832;28;20461;-60
2023/08/13 09:59:17;;;;;;;;;;;;;;;21.75;74.66;98290.59;5038839;28;19928;-59
2023/08/13 10:01:45;;;;;;;;;;;;;;;21.75;75.35;98291.41;5041502;28;19931;-58
2023/08/13 10:04:18;;;;;;;;;;;;;;;21.80;76.32;98285.53;5042548;28;20468;-62
2023/08/13 10:06:46;;;;;;;;;;;;;;;21.81;77.26;98281.59;5047550;28;20300;-64
2023/08/13 10:09:14;;;;;;;;;;;;;;;21.86;76.12;98286.78;5037669;28;20413;-58
2023/08/13 10:11:43;;;;;;;;;;;;;;;21.87;74.60;98276.53;5043679;28;19935;-58
2023/08/13 10:14:11;;;;;;;;;;;;;;;21.90;74.61;98284.09;5057922;28;20401;-58
2023/08/13 10:16:39;;;;;;;;;;;;;;;21.92;74.54;98287.25;5047379;28;19936;-59
2023/08/13 10:19:07;;;;;;;;;;;;;;;22.02;75.21;98280.25;5047353;28;19925;-58
2023/08/13 10:21:37;;;;;;;;;;;;;;;22.00;75.16;98288.13;5044002;28;19964;-59
2023/08/13 10:24:06;;;;;;;;;;;;;;;22.04;75.54;98288.97;5041531;28;19929;-61
2023/08/13 10:26:34;;;;;;;;;;;;;;;;;;5027138;28;19928;-59
2023/08/13 10:29:02;;;;;;;;;;;;;;;22.11;74.23;98280.78;5046847;28;19931;-59
2023/08/13 10:31:30;;;;;;;;;;;;;;;22.17;73.03;98277.31;5044233;28;19931;-60
2023/08/13 10:34:08;;;;;;;;;;;;;;;22.23;73.76;98278.53;5040245;28;19996;-60
2023/08/13 10:36:44;;;;;;;;;;;;;;;22.25;76.01;98272.63;5043731;28;20374;-59
2023/08/13 10:39:32;;;;;;;;;;;;;;;22.29;74.92;98258.81;5041681;28;20419;-58
2023/08/13 10:42:00;;;;;;;;;;;;;;;22.26;73.86;98262.34;5044668;28;19928;-58
2023/08/13 10:44:28;;;;;;;;;;;;;;;22.27;73.48;98263.97;5036825;28;19929;-60
2023/08/13 10:46:56;;;;;;;;;;;;;;;22.25;72.74;98269.84;5047436;28;19925;-59
2023/08/13 10:49:25;;;;;;;;;;;;;;;22.23;71.06;98264.72;5044293;28;19933;-59
2023/08/13 10:51:54;;;;;;;;;;;;;;;22.24;72.66;98265.50;5039749;28;19939;-65
2023/08/13 10:54:24;;;;;;;;;;;;;;;22.28;72.99;98271.88;5056325;28;20365;-60
2023/08/13 10:56:57;;;;;;;;;;;;;;;22.29;74.51;98272.66;5045777;28;20014;-59
2023/08/13 10:59:28;;;;;;;;;;;;;;;22.31;74.76;98262.78;5030959;28;19928;-59
2023/08/13 11:02:12;;;;;;;;;;;;;;;22.31;73.77;98264.75;5042541;28;19925;-59
2023/08/13 11:04:41;;;;;;;;;;;;;;;22.31;74.48;98267.53;5041756;28;19925;-62
2023/08/13 11:07:11;;;;;;;;;;;;;;;22.32;73.75;98267.19;5060853;28;19951;-60
2023/08/13 11:09:39;;;;;;;;;;;;;;;22.29;73.25;98267.91;5038598;28;19936;-59
2023/08/13 11:12:09;;;;;;;;;;;;;;;22.31;73.25;98265.56;5045684;28;19925;-59
2023/08/13 11:14:37;;;;;;;;;;;;;;;22.30;73.49;98261.22;5036022;28;19933;-61
2023/08/13 11:17:05;;;;;;;;;;;;;;;22.32;72.79;98260.81;5042268;28;19935;-58
2023/08/13 11:19:32;;;;;;;;;;;;;;;22.33;73.24;98257.69;5044963;28;19992;-59
2023/08/13 11:22:01;;;;;;;;;;;;;;;22.39;73.39;98256.16;5044912;28;20297;-58
2023/08/13 11:24:32;;;;;;;;;;;;;;;22.40;73.41;98257.75;5058015;28;19924;-59
2023/08/13 11:27:01;;;;;;;;;;;;;;;22.42;73.16;98254.59;5047019;28;19964;-59
2023/08/13 11:29:32;;;;;;;;;;;;;;;22.47;73.42;98254.25;5053438;28;20009;-59
2023/08/13 11:32:00;;;;;;;;;;;;;;;22.48;71.89;98247.56;5053729;28;19971;-59
2023/08/13 11:34:27;;;;;;;;;;;;;;;22.49;71.71;98244.41;5053430;28;20297;-62
2023/08/13 11:36:56;;;;;;;;;;;;;;;22.51;71.05;98248.75;5052947;28;19935;-59
2023/08/13 11:39:24;;;;;;;;;;;;;;;22.50;70.58;98239.66;5064848;28;19928;-60
2023/08/13 11:41:54;;;;;;;;;;;;;;;22.56;73.79;98234.56;5056675;28;20378;-58
2023/08/13 11:44:21;;;;;;;;;;;;;;;22.61;71.50;98240.53;5053055;28;19925;-59
2023/08/13 11:46:51;;;;;;;;;;;;;;;22.62;69.75;98233.03;5059164;28;19925;-59
2023/08/13 11:49:24;;;;;;;;;;;;;;;22.64;70.98;98230.69;5052426;28;19928;-58
2023/08/13 11:51:52;;;;;;;;;;;;;;;22.66;70.92;98236.63;5052509;28;19955;-58
2023/08/13 11:54:20;;;;;;;;;;;;;;;22.68;72.69;98239.78;5050864;28;19924;-59
2023/08/13 11:56:50;;;;;;;;;;;;;;;22.67;73.57;98233.47;5047317;28;19929;-59
2023/08/13 11:59:25;;;;;;;;;;;;;;;22.72;72.40;98233.09;5052447;28;19932;-58
2023/08/13 12:01:54;;;;;;;;;;;;;;;22.73;69.96;98228.34;5051905;28;19925;-60
2023/08/13 12:04:23;;;;;;;;;;;;;;;22.81;72.77;98230.00;5054505;28;20653;-59
2023/08/13 12:06:52;;;;;;;;;;;;;;;22.81;70.16;98234.75;5051887;28;20404;-60
2023/08/13 12:09:20;;;;;;;;;;;;;;;22.85;74.38;98228.06;5052502;28;20696;-59
2023/08/13 12:11:48;;;;;;;;;;;;;;;22.89;74.07;98233.66;5050922;28;19931;-61
2023/08/13 12:14:16;;;;;;;;;;;;;;;22.86;73.48;98229.66;5050607;28;20378;-58
2023/08/13 12:16:45;;;;;;;;;;;;;;;22.83;70.69;98235.16;5052255;28;20002;-59
2023/08/13 12:19:13;;;;;;;;;;;;;;;22.85;71.21;98239.16;5051737;28;19931;-59
2023/08/13 12:21:41;;;;;;;;;;;;;;;22.88;73.37;98232.84;5051576;28;19931;-60
2023/08/13 12:24:10;;;;;;;;;;;;;;;22.86;72.29;98235.19;5048754;28;20313;-59
2023/08/13 12:26:37;;;;;;;;;;;;;;;22.84;72.25;98232.00;5051307;28;19924;-59
2023/08/13 12:29:05;;;;;;;;;;;;;;;22.84;72.52;98229.22;5048102;28;19925;-59
2023/08/13 12:31:34;;;;;;;;;;;;;;;22.82;70.70;98231.59;5051796;28;19932;-60
2023/08/13 12:34:04;;;;;;;;;;;;;;;22.81;70.40;98224.47;5051485;28;19931;-64
2023/08/13 12:36:31;;;;;;;;;;;;;;;22.83;71.40;98226.84;5052002;28;19929;-59
2023/08/13 12:38:59;;;;;;;;;;;;;;;22.88;73.24;98220.97;5042903;28;19978;-59
2023/08/13 12:41:28;;;;;;;;;;;;;;;22.88;70.87;98210.69;5048161;28;19929;-59
2023/08/13 12:44:07;;;;;;;;;;;;;;;22.86;70.47;98203.94;5033548;28;19932;-59
2023/08/13 12:46:35;;;;;;;;;;;;;;;22.90;71.63;98201.97;5046976;28;19940;-59
2023/08/13 12:49:07;;;;;;;;;;;;;;;22.91;72.14;98201.63;5061169;28;19932;-60
2023/08/13 12:51:35;;;;;;;;;;;;;;;22.89;69.93;98201.19;5066220;28;19928;-59
2023/08/13 12:54:03;;;;;;;;;;;;;;;22.88;69.81;98188.53;5051294;28;19932;-59
2023/08/13 12:56:31;;;;;;;;;;;;;;;22.89;71.12;98195.66;5045305;28;19929;-58